createdAt,value
2017-09-09T00:01:36.781Z,95.07
2017-09-09T00:04:04.302Z,95.48
2017-09-09T00:06:31.819Z,93.35
2017-09-09T00:08:59.331Z,94.77
2017-09-09T00:11:26.840Z,95.84
2017-09-09T00:13:54.340Z,96.38
2017-09-09T00:16:21.859Z,95.02
2017-09-09T00:18:49.396Z,94.82
2017-09-09T00:21:16.896Z,96.65
2017-09-09T00:23:44.402Z,96.30
2017-09-09T00:26:11.901Z,96.21
2017-09-09T00:28:39.454Z,96.81
2017-09-09T00:31:06.970Z,96.89
2017-09-09T00:33:34.477Z,96.50
2017-09-09T00:36:02.008Z,95.65
2017-09-09T00:38:29.517Z,95.35
2017-09-09T00:40:57.023Z,94.64
2017-09-09T00:43:24.544Z,95.15
2017-09-09T00:45:52.051Z,95.05
2017-09-09T00:48:19.564Z,95.85
2017-09-09T00:50:47.087Z,95.69
2017-09-09T00:53:14.598Z,95.54
2017-09-09T00:55:42.103Z,95.75
2017-09-09T00:58:09.628Z,95.64
2017-09-09T01:00:37.150Z,94.37
2017-09-09T01:03:04.665Z,94.51
2017-09-09T01:05:32.225Z,94.83
2017-09-09T01:07:59.811Z,95.33
2017-09-09T01:10:27.306Z,94.25
2017-09-09T01:12:54.830Z,93.17
2017-09-09T01:15:22.367Z,93.34
2017-09-09T01:17:49.877Z,94.25
2017-09-09T01:20:17.391Z,94.30
2017-09-09T01:22:44.900Z,94.06
2017-09-09T01:25:12.419Z,94.96
2017-09-09T01:27:39.931Z,95.01
2017-09-09T01:30:07.461Z,94.91
2017-09-09T01:32:34.967Z,94.06
2017-09-09T01:35:02.462Z,95.93
2017-09-09T01:37:29.971Z,94.48
2017-09-09T01:39:57.487Z,94.68
2017-09-09T01:42:24.992Z,93.96
2017-09-09T01:44:52.506Z,93.95
2017-09-09T01:47:20.012Z,95.36
2017-09-09T01:49:47.529Z,94.59
2017-09-09T01:52:15.022Z,95.34
2017-09-09T01:54:42.528Z,96.30
2017-09-09T01:57:10.044Z,96.27
2017-09-09T01:59:37.551Z,96.29
2017-09-09T02:02:05.118Z,96.51
2017-09-09T02:04:32.623Z,96.57
2017-09-09T02:07:00.119Z,96.78
2017-09-09T02:09:27.646Z,93.72
2017-09-09T02:11:55.153Z,94.34
2017-09-09T02:14:22.654Z,94.87
2017-09-09T02:16:50.154Z,94.55
2017-09-09T02:19:17.694Z,94.22
2017-09-09T02:21:45.194Z,94.69
2017-09-09T02:24:12.764Z,95.07
2017-09-09T02:26:40.270Z,95.05
2017-09-09T02:29:07.770Z,94.72
2017-09-09T02:31:35.283Z,94.75
2017-09-09T02:34:02.793Z,94.97
2017-09-09T02:36:30.311Z,94.23
2017-09-09T02:38:57.820Z,94.01
2017-09-09T02:41:25.328Z,92.60
2017-09-09T02:43:52.829Z,92.45
2017-09-09T02:46:20.336Z,93.44
2017-09-09T02:48:47.869Z,92.46
2017-09-09T02:51:15.378Z,93.47
2017-09-09T02:53:42.887Z,93.95
2017-09-09T02:56:10.392Z,94.68
2017-09-09T02:58:37.896Z,94.65
2017-09-09T03:01:05.393Z,95.30
2017-09-09T03:03:32.907Z,96.22
2017-09-09T03:06:00.416Z,96.03
2017-09-09T03:08:27.934Z,95.60
2017-09-09T03:10:55.432Z,96.73
2017-09-09T03:13:22.947Z,97.13
2017-09-09T03:15:50.460Z,96.40
2017-09-09T03:18:17.972Z,95.88
2017-09-09T03:20:45.494Z,95.78
2017-09-09T03:23:13.019Z,95.95
2017-09-09T03:25:40.512Z,95.17
2017-09-09T03:28:08.020Z,94.80
2017-09-09T03:30:35.547Z,93.66
2017-09-09T03:33:03.051Z,95.00
2017-09-09T03:35:30.547Z,94.89
2017-09-09T03:37:58.046Z,95.08
2017-09-09T03:40:25.555Z,95.27
2017-09-09T03:42:53.075Z,94.43
2017-09-09T03:45:20.583Z,92.87
2017-09-09T03:47:48.084Z,93.64
2017-09-09T03:50:15.586Z,94.45
2017-09-09T03:52:43.131Z,94.22
2017-09-09T03:55:10.658Z,94.33
2017-09-09T03:57:38.159Z,94.40
2017-09-09T04:00:05.664Z,94.80
2017-09-09T04:02:33.178Z,94.80
2017-09-09T04:05:00.678Z,93.96
2017-09-09T04:07:28.184Z,93.96
2017-09-09T04:09:55.690Z,93.17
2017-09-09T04:12:23.222Z,92.85
2017-09-09T04:14:50.736Z,91.96
2017-09-09T04:17:18.240Z,93.24
2017-09-09T04:19:45.869Z,93.30
2017-09-09T04:22:13.369Z,93.01
2017-09-09T04:24:40.879Z,94.00
2017-09-09T04:27:08.379Z,93.97
2017-09-09T04:29:35.927Z,94.58
2017-09-09T04:32:03.442Z,95.05
2017-09-09T04:34:30.969Z,95.36
2017-09-09T04:36:58.468Z,94.86
2017-09-09T04:39:26.004Z,94.00
2017-09-09T04:41:53.513Z,93.93
2017-09-09T04:44:21.033Z,94.12
2017-09-09T04:46:48.539Z,92.89
2017-09-09T04:49:16.047Z,93.89
2017-09-09T04:51:43.561Z,94.11
2017-09-09T04:54:11.072Z,95.16
2017-09-09T04:56:38.585Z,94.30
2017-09-09T04:59:06.094Z,93.99
2017-09-09T05:01:33.615Z,94.85
2017-09-09T05:04:01.128Z,95.48
2017-09-09T05:06:28.644Z,94.93
2017-09-09T05:08:56.151Z,95.51
2017-09-09T05:11:23.684Z,95.32
2017-09-09T05:13:51.191Z,95.37
2017-09-09T05:16:18.740Z,95.09
2017-09-09T05:18:46.242Z,95.10
2017-09-09T05:21:13.870Z,94.39
2017-09-09T05:23:41.400Z,93.80
2017-09-09T05:26:08.900Z,93.63
2017-09-09T05:28:36.435Z,93.43
2017-09-09T05:31:03.956Z,92.61
2017-09-09T05:33:31.459Z,93.15
2017-09-09T05:35:58.985Z,94.70
2017-09-09T05:38:26.492Z,94.05
2017-09-09T05:40:54.025Z,93.79
2017-09-09T05:43:21.541Z,94.26
2017-09-09T05:45:49.063Z,94.38
2017-09-09T05:48:16.574Z,93.39
2017-09-09T05:50:44.105Z,94.99
2017-09-09T05:53:11.609Z,95.29
2017-09-09T05:55:39.118Z,94.13
2017-09-09T05:58:06.621Z,93.42
2017-09-09T06:00:34.132Z,93.00
2017-09-09T06:03:01.646Z,92.14
2017-09-09T06:05:29.205Z,91.87
2017-09-09T06:07:56.708Z,91.53
2017-09-09T06:10:24.223Z,92.44
2017-09-09T06:12:51.734Z,93.75
2017-09-09T06:15:19.254Z,94.62
2017-09-09T06:17:46.781Z,93.87
2017-09-09T06:20:14.310Z,93.74
2017-09-09T06:22:41.822Z,93.48
2017-09-09T06:25:13.927Z,93.72
2017-09-09T06:27:41.467Z,94.29
2017-09-09T06:30:09.031Z,94.28
2017-09-09T06:32:36.544Z,94.27
2017-09-09T06:35:04.062Z,91.97
2017-09-09T06:37:31.586Z,91.33
2017-09-09T06:39:59.103Z,90.66
2017-09-09T06:42:26.652Z,90.93
2017-09-09T06:44:54.172Z,90.71
2017-09-09T06:47:21.701Z,90.35
2017-09-09T06:49:49.247Z,91.37
2017-09-09T06:52:18.206Z,92.08
2017-09-09T06:54:45.755Z,94.17
2017-09-09T06:57:13.284Z,95.58
2017-09-09T06:59:40.957Z,95.76
2017-09-09T07:02:08.617Z,95.02
2017-09-09T07:04:36.128Z,94.83
2017-09-09T07:07:03.643Z,93.67
2017-09-09T07:09:31.191Z,93.29
2017-09-09T07:11:58.866Z,94.55
2017-09-09T07:14:26.374Z,94.11
2017-09-09T07:16:53.889Z,93.71
2017-09-09T07:19:21.447Z,94.60
2017-09-09T07:21:48.964Z,95.49
2017-09-09T07:24:16.502Z,95.00
2017-09-09T07:26:44.027Z,96.34
2017-09-09T07:29:11.531Z,96.82
2017-09-09T07:31:39.046Z,97.19
2017-09-09T07:34:06.559Z,96.56
2017-09-09T07:36:34.071Z,96.90
2017-09-09T07:39:01.624Z,95.66
2017-09-09T07:41:29.163Z,95.28
2017-09-09T07:43:56.745Z,94.92
2017-09-09T07:46:24.263Z,95.03
2017-09-09T07:48:51.767Z,95.70
2017-09-09T07:51:19.296Z,95.28
2017-09-09T07:53:46.791Z,94.82
2017-09-09T07:56:14.320Z,94.50
2017-09-09T07:58:41.844Z,93.85
2017-09-09T08:01:09.354Z,93.88
2017-09-09T08:03:36.872Z,92.96
2017-09-09T08:06:04.395Z,92.71
2017-09-09T08:08:31.899Z,92.59
2017-09-09T08:10:59.407Z,92.91
2017-09-09T08:13:26.919Z,91.12
2017-09-09T08:15:54.464Z,92.80
2017-09-09T08:18:21.984Z,93.15
2017-09-09T08:20:49.493Z,94.93
2017-09-09T08:23:17.034Z,95.45
2017-09-09T08:25:44.675Z,95.81
2017-09-09T08:28:12.179Z,96.39
2017-09-09T08:30:39.694Z,95.61
2017-09-09T08:33:07.209Z,95.30
2017-09-09T08:35:34.797Z,95.47
2017-09-09T08:38:02.321Z,96.02
2017-09-09T08:40:29.871Z,96.16
2017-09-09T08:42:57.406Z,95.64
2017-09-09T08:45:24.925Z,95.31
2017-09-09T08:47:52.447Z,93.17
2017-09-09T08:50:19.966Z,94.53
2017-09-09T08:52:47.487Z,93.84
2017-09-09T08:55:15.013Z,94.04
2017-09-09T08:57:42.536Z,95.44
2017-09-09T09:00:10.040Z,93.37
2017-09-09T09:02:37.576Z,93.89
2017-09-09T09:05:05.120Z,94.54
2017-09-09T09:07:32.639Z,92.96
2017-09-09T09:10:00.152Z,93.98
2017-09-09T09:12:27.670Z,94.08
2017-09-09T09:14:55.175Z,92.23
2017-09-09T09:17:22.703Z,89.40
2017-09-09T09:19:50.219Z,86.85
2017-09-09T09:22:17.714Z,86.46
2017-09-09T09:24:45.236Z,86.53
2017-09-09T09:27:12.771Z,86.07
2017-09-09T09:29:40.296Z,86.64
2017-09-09T09:32:07.816Z,84.95
2017-09-09T09:34:35.340Z,84.35
2017-09-09T09:37:02.851Z,86.73
2017-09-09T09:39:30.400Z,86.23
2017-09-09T09:41:57.941Z,87.34
2017-09-09T09:44:25.456Z,85.09
2017-09-09T09:46:52.991Z,86.16
2017-09-09T09:49:20.496Z,85.38
2017-09-09T09:51:48.011Z,86.18
2017-09-09T09:54:15.528Z,85.16
2017-09-09T09:56:43.031Z,84.71
2017-09-09T09:59:10.938Z,84.28
2017-09-09T10:01:38.448Z,84.42
2017-09-09T10:04:05.963Z,87.53
2017-09-09T10:06:33.492Z,86.19
2017-09-09T10:09:01.015Z,85.69
2017-09-09T10:11:28.582Z,85.67
2017-09-09T10:13:56.135Z,86.02
2017-09-09T10:16:23.694Z,87.87
2017-09-09T10:18:51.232Z,86.10
2017-09-09T10:21:18.856Z,87.19
2017-09-09T10:23:46.354Z,86.12
2017-09-09T10:26:13.864Z,88.49
2017-09-09T10:28:41.399Z,88.23
2017-09-09T10:31:08.951Z,89.31
2017-09-09T10:33:36.473Z,87.13
2017-09-09T10:36:04.093Z,87.95
2017-09-09T10:38:31.609Z,87.64
2017-09-09T10:40:59.131Z,88.35
2017-09-09T10:43:26.629Z,84.44
2017-09-09T10:45:54.130Z,82.89
2017-09-09T10:48:21.656Z,85.00
2017-09-09T10:50:49.183Z,85.90
2017-09-09T10:53:16.731Z,82.91
2017-09-09T10:55:44.426Z,83.74
2017-09-09T10:58:11.928Z,83.73
2017-09-09T11:00:39.452Z,81.76
2017-09-09T11:03:06.975Z,81.25
2017-09-09T11:05:34.488Z,82.53
2017-09-09T11:08:01.996Z,78.76
2017-09-09T11:10:29.507Z,80.48
2017-09-09T11:12:57.041Z,80.87
2017-09-09T11:15:24.570Z,83.96
2017-09-09T11:17:52.099Z,83.52
2017-09-09T11:20:19.623Z,82.03
2017-09-09T11:22:47.154Z,81.85
2017-09-09T11:25:14.669Z,83.00
2017-09-09T11:27:42.194Z,82.31
2017-09-09T11:30:09.690Z,80.19
2017-09-09T11:32:37.190Z,77.50
2017-09-09T11:35:04.716Z,79.66
2017-09-09T11:37:33.115Z,79.47
2017-09-09T11:40:00.637Z,79.26
2017-09-09T11:42:28.351Z,75.58
2017-09-09T11:44:55.876Z,75.56
2017-09-09T11:47:23.401Z,74.71
2017-09-09T11:49:50.914Z,76.51
2017-09-09T11:52:18.472Z,76.96
2017-09-09T11:54:45.979Z,75.53
2017-09-09T11:57:13.512Z,73.81
2017-09-09T11:59:41.051Z,72.64
2017-09-09T12:02:08.585Z,72.06
2017-09-09T12:04:36.087Z,72.28
2017-09-09T12:07:03.600Z,70.73
2017-09-09T12:09:31.109Z,69.79
2017-09-09T12:11:58.603Z,70.24
2017-09-09T12:14:26.132Z,70.55
2017-09-09T12:16:53.731Z,72.34
2017-09-09T12:19:21.244Z,71.18
2017-09-09T12:21:48.749Z,70.51
2017-09-09T12:24:16.593Z,72.06
2017-09-09T12:26:44.098Z,71.40
2017-09-09T12:29:11.952Z,71.63
2017-09-09T12:31:39.481Z,71.66
2017-09-09T12:34:07.135Z,71.81
2017-09-09T12:36:34.666Z,72.93
2017-09-09T12:39:02.180Z,73.20
2017-09-09T12:41:29.687Z,71.97
2017-09-09T12:43:57.212Z,75.31
2017-09-09T12:46:24.762Z,73.48
2017-09-09T12:48:52.286Z,74.72
2017-09-09T12:51:19.792Z,75.89
2017-09-09T12:53:47.316Z,75.45
2017-09-09T12:56:14.849Z,76.29
2017-09-09T12:58:42.386Z,75.45
2017-09-09T13:01:09.890Z,72.79
2017-09-09T13:03:37.398Z,77.31
2017-09-09T13:06:04.908Z,80.37
2017-09-09T13:08:32.446Z,77.57
2017-09-09T13:10:59.973Z,76.06
2017-09-09T13:13:27.492Z,74.49
2017-09-09T13:15:55.005Z,76.36
2017-09-09T13:18:22.516Z,78.57
2017-09-09T13:20:50.031Z,75.74
2017-09-09T13:23:17.557Z,74.89
2017-09-09T13:25:45.086Z,73.21
2017-09-09T13:28:12.596Z,69.25
2017-09-09T13:30:40.143Z,69.05
2017-09-09T13:33:07.695Z,68.97
2017-09-09T13:35:35.207Z,69.87
2017-09-09T13:38:02.748Z,70.66
2017-09-09T13:40:30.295Z,71.39
2017-09-09T13:42:57.848Z,72.55
2017-09-09T13:45:25.367Z,71.22
2017-09-09T13:47:52.900Z,71.14
2017-09-09T13:50:20.427Z,72.03
2017-09-09T13:52:47.943Z,69.97
2017-09-09T13:55:15.443Z,68.48
2017-09-09T13:57:42.997Z,67.13
2017-09-09T14:00:10.504Z,71.13
2017-09-09T14:02:38.026Z,69.58
2017-09-09T14:05:05.533Z,68.97
2017-09-09T14:07:33.047Z,66.80
2017-09-09T14:10:00.567Z,68.67
2017-09-09T14:12:28.087Z,66.64
2017-09-09T14:14:55.595Z,67.03
2017-09-09T14:17:23.125Z,69.45
2017-09-09T14:19:50.642Z,71.23
2017-09-09T14:22:18.159Z,73.64
2017-09-09T14:24:45.660Z,74.27
2017-09-09T14:27:13.171Z,74.29
2017-09-09T14:29:40.695Z,75.50
2017-09-09T14:32:08.199Z,76.31
2017-09-09T14:34:35.709Z,77.33
2017-09-09T14:37:03.238Z,77.70
2017-09-09T14:39:30.883Z,77.05
2017-09-09T14:41:58.398Z,77.06
2017-09-09T14:44:25.899Z,76.10
2017-09-09T14:46:53.560Z,77.22
2017-09-09T14:49:21.080Z,76.63
2017-09-09T14:51:48.592Z,78.53
2017-09-09T14:54:16.113Z,78.13
2017-09-09T14:56:43.619Z,76.85
2017-09-09T14:59:11.130Z,77.10
2017-09-09T15:01:38.646Z,76.94
2017-09-09T15:04:06.168Z,76.41
2017-09-09T15:06:33.676Z,76.90
2017-09-09T15:09:01.195Z,77.61
2017-09-09T15:11:28.715Z,77.25
2017-09-09T15:13:56.262Z,77.43
2017-09-09T15:16:23.784Z,77.97
2017-09-09T15:18:51.323Z,78.17
2017-09-09T15:21:18.847Z,78.45
2017-09-09T15:23:46.351Z,77.34
2017-09-09T15:26:13.908Z,78.23
2017-09-09T15:28:41.435Z,78.85
2017-09-09T15:31:08.948Z,77.95
2017-09-09T15:33:36.468Z,77.15
2017-09-09T15:36:03.976Z,78.20
2017-09-09T15:38:31.523Z,77.85
2017-09-09T15:40:59.026Z,77.69
2017-09-09T15:43:26.551Z,78.24
2017-09-09T15:45:54.083Z,77.25
2017-09-09T15:48:21.625Z,76.95
2017-09-09T15:50:49.126Z,78.43
2017-09-09T15:53:16.635Z,78.00
2017-09-09T15:55:44.198Z,78.34
2017-09-09T15:58:11.803Z,79.61
2017-09-09T16:00:39.352Z,78.08
2017-09-09T16:03:06.878Z,79.10
2017-09-09T16:05:34.411Z,80.12
2017-09-09T16:08:01.931Z,79.89
2017-09-09T16:10:29.468Z,79.60
2017-09-09T16:12:56.974Z,79.35
2017-09-09T16:15:24.476Z,79.70
2017-09-09T16:17:51.980Z,80.04
2017-09-09T16:20:19.499Z,79.10
2017-09-09T16:22:47.025Z,80.52
2017-09-09T16:25:14.552Z,78.36
2017-09-09T16:27:42.055Z,81.15
2017-09-09T16:30:09.556Z,83.77
2017-09-09T16:32:37.578Z,83.59
2017-09-09T16:35:05.078Z,83.13
2017-09-09T16:37:32.601Z,83.99
2017-09-09T16:40:00.111Z,84.74
2017-09-09T16:42:27.615Z,83.66
2017-09-09T16:44:55.142Z,83.92
2017-09-09T16:47:22.651Z,84.04
2017-09-09T16:49:50.181Z,85.21
2017-09-09T16:52:17.708Z,86.45
2017-09-09T16:54:45.211Z,87.01
2017-09-09T16:57:12.747Z,87.84
2017-09-09T16:59:40.270Z,87.48
2017-09-09T17:02:07.815Z,88.71
2017-09-09T17:04:35.339Z,89.11
2017-09-09T17:07:02.870Z,89.56
2017-09-09T17:09:30.443Z,88.42
2017-09-09T17:11:57.988Z,88.15
2017-09-09T17:14:25.565Z,88.95
2017-09-09T17:16:53.078Z,88.58
2017-09-09T17:19:20.601Z,89.46
2017-09-09T17:21:48.113Z,89.50
2017-09-09T17:24:15.703Z,89.75
2017-09-09T17:26:43.209Z,88.75
2017-09-09T17:29:10.712Z,88.76
2017-09-09T17:31:38.212Z,91.08
2017-09-09T17:34:05.744Z,92.15
2017-09-09T17:36:33.252Z,92.09
2017-09-09T17:39:00.776Z,93.34
2017-09-09T17:41:28.308Z,93.51
2017-09-09T17:43:55.813Z,93.42
2017-09-09T17:46:23.336Z,94.16
2017-09-09T17:48:50.866Z,92.60
2017-09-09T17:51:18.386Z,91.48
2017-09-09T17:53:45.901Z,93.17
2017-09-09T17:56:13.419Z,94.09
2017-09-09T17:58:41.066Z,94.73
2017-09-09T18:01:08.580Z,94.69
2017-09-09T18:03:36.124Z,94.97
2017-09-09T18:06:03.627Z,95.35
2017-09-09T18:08:31.134Z,95.15
2017-09-09T18:10:58.663Z,95.86
2017-09-09T18:13:26.203Z,95.98
2017-09-09T18:15:53.723Z,96.48
2017-09-09T18:18:21.240Z,96.29
2017-09-09T18:20:48.755Z,95.00
2017-09-09T18:23:16.277Z,92.55
2017-09-09T18:25:43.795Z,92.81
2017-09-09T18:28:11.301Z,92.57
2017-09-09T18:30:38.830Z,91.96
2017-09-09T18:33:06.396Z,92.67
2017-09-09T18:35:33.899Z,93.66
2017-09-09T18:38:01.432Z,95.09
2017-09-09T18:40:28.991Z,93.89
2017-09-09T18:42:56.512Z,93.88
2017-09-09T18:45:24.024Z,94.31
2017-09-09T18:47:51.544Z,94.67
2017-09-09T18:50:19.080Z,95.30
2017-09-09T18:52:46.583Z,95.79
2017-09-09T18:55:14.129Z,95.44
2017-09-09T18:57:41.640Z,93.99
2017-09-09T19:00:09.155Z,94.32
2017-09-09T19:02:36.656Z,95.51
2017-09-09T19:05:04.180Z,95.71
2017-09-09T19:07:31.797Z,96.00
2017-09-09T19:09:59.315Z,96.06
2017-09-09T19:12:26.842Z,94.52
2017-09-09T19:14:54.513Z,93.72
2017-09-09T19:17:22.024Z,94.31
2017-09-09T19:19:49.566Z,93.93
2017-09-09T19:22:17.138Z,92.95
2017-09-09T19:24:44.688Z,93.44
2017-09-09T19:27:12.192Z,96.97
2017-09-09T19:29:39.721Z,98.59
2017-09-09T19:32:07.245Z,98.72
2017-09-09T19:34:34.886Z,98.93
2017-09-09T19:37:02.398Z,98.87
2017-09-09T19:39:29.930Z,98.74
2017-09-09T19:41:57.525Z,99.17
2017-09-09T19:44:25.033Z,98.58
2017-09-09T19:46:52.591Z,95.84
2017-09-09T19:49:20.102Z,95.48
2017-09-09T19:51:47.630Z,97.19
2017-09-09T19:54:15.168Z,97.74
2017-09-09T19:56:42.667Z,95.95
2017-09-09T19:59:10.213Z,96.59
2017-09-09T20:01:37.723Z,96.96
2017-09-09T20:04:05.227Z,95.62
2017-09-09T20:06:32.769Z,94.85
2017-09-09T20:09:00.351Z,95.25
2017-09-09T20:11:27.899Z,95.39
2017-09-09T20:13:55.419Z,96.53
2017-09-09T20:16:22.920Z,96.96
2017-09-09T20:18:50.438Z,98.38
2017-09-09T20:21:17.975Z,99.11
2017-09-09T20:23:45.484Z,99.27
2017-09-09T20:26:13.030Z,99.28
2017-09-09T20:28:40.545Z,98.45
2017-09-09T20:31:08.082Z,97.96
2017-09-09T20:33:35.602Z,98.86
2017-09-09T20:36:03.120Z,97.78
2017-09-09T20:38:30.639Z,96.79
2017-09-09T20:40:58.176Z,95.31
2017-09-09T20:43:25.684Z,95.72
2017-09-09T20:45:53.180Z,97.31
2017-09-09T20:48:20.711Z,98.04
2017-09-09T20:50:48.362Z,99.17
2017-09-09T20:53:15.873Z,99.47
2017-09-09T20:55:43.384Z,98.93
2017-09-09T20:58:10.907Z,98.41
2017-09-09T21:00:38.435Z,98.05
2017-09-09T21:03:05.951Z,98.79
2017-09-09T21:05:33.524Z,99.65
2017-09-09T21:08:01.049Z,99.62
2017-09-09T21:10:28.568Z,99.94
2017-09-09T21:12:56.127Z,100.00
2017-09-09T21:15:23.643Z,100.00
2017-09-09T21:17:51.155Z,99.82
2017-09-09T21:20:18.680Z,99.75
2017-09-09T21:22:46.206Z,99.31
2017-09-09T21:25:13.920Z,99.50
2017-09-09T21:27:41.473Z,99.61
2017-09-09T21:30:09.027Z,99.59
2017-09-09T21:32:36.531Z,99.30
2017-09-09T21:35:04.068Z,98.99
2017-09-09T21:37:31.583Z,99.10
2017-09-09T21:39:59.131Z,98.72
2017-09-09T21:42:26.636Z,99.37
2017-09-09T21:44:54.171Z,99.28
2017-09-09T21:47:21.712Z,99.70
2017-09-09T21:49:49.227Z,99.73
2017-09-09T21:52:16.767Z,99.51
2017-09-09T21:54:44.271Z,99.53
2017-09-09T21:57:11.788Z,99.24
2017-09-09T21:59:39.307Z,99.26
2017-09-09T22:02:06.843Z,99.04
2017-09-09T22:04:34.355Z,99.01
2017-09-09T22:07:01.900Z,99.61
2017-09-09T22:09:29.444Z,99.88
2017-09-09T22:11:56.960Z,99.79
2017-09-09T22:14:24.462Z,99.23
2017-09-09T22:16:51.980Z,98.98
2017-09-09T22:19:19.484Z,99.32
2017-09-09T22:21:47.006Z,98.88
2017-09-09T22:24:14.535Z,98.46
2017-09-09T22:26:42.036Z,98.21
2017-09-09T22:29:09.546Z,96.20
2017-09-09T22:31:37.048Z,96.01
2017-09-09T22:34:04.551Z,97.61
2017-09-09T22:36:32.063Z,98.20
2017-09-09T22:38:59.573Z,98.67
2017-09-09T22:41:27.081Z,99.04
2017-09-09T22:43:54.603Z,98.85
2017-09-09T22:46:22.128Z,98.97
2017-09-09T22:48:49.687Z,98.34
2017-09-09T22:51:17.199Z,96.80
2017-09-09T22:53:44.706Z,98.01
2017-09-09T22:56:12.227Z,99.18
2017-09-09T22:58:39.745Z,99.91
2017-09-09T23:01:07.280Z,99.66
2017-09-09T23:03:34.792Z,99.52
2017-09-09T23:06:02.313Z,99.29
2017-09-09T23:08:29.815Z,99.21
2017-09-09T23:10:57.362Z,99.33
2017-09-09T23:13:24.884Z,99.54
2017-09-09T23:15:52.387Z,99.44
2017-09-09T23:18:19.895Z,99.42
2017-09-09T23:20:47.422Z,100.00
2017-09-09T23:23:14.947Z,100.00
2017-09-09T23:25:42.467Z,100.00
2017-09-09T23:28:10.008Z,100.00
2017-09-09T23:30:37.550Z,100.00
2017-09-09T23:33:05.070Z,100.00
2017-09-09T23:35:32.602Z,99.91
2017-09-09T23:38:00.142Z,100.00
2017-09-09T23:40:27.655Z,100.00
2017-09-09T23:42:55.177Z,100.00
2017-09-09T23:45:22.686Z,100.00
2017-09-09T23:47:50.219Z,100.00
2017-09-09T23:50:17.720Z,99.70
2017-09-09T23:52:45.239Z,99.46
2017-09-09T23:55:12.759Z,99.58
2017-09-09T23:57:40.294Z,99.39
